createdAt,value
2023-06-17T00:00:42.672Z,96807.88
2023-06-17T00:03:09.850Z,96804.94
2023-06-17T00:05:37.287Z,96804.94
2023-06-17T00:08:04.151Z,96802.81
2023-06-17T00:10:30.759Z,96804.63
2023-06-17T00:12:59.631Z,96808.88
2023-06-17T00:15:26.469Z,96804.09
2023-06-17T00:17:53.287Z,96802.47
2023-06-17T00:20:20.158Z,96797.19
2023-06-17T00:22:48.145Z,96797.47
2023-06-17T00:25:14.827Z,96784.50
2023-06-17T00:27:41.475Z,96790.06
2023-06-17T00:30:08.737Z,96798.75
2023-06-17T00:32:36.479Z,96792.63
2023-06-17T00:35:06.829Z,96792.38
2023-06-17T00:37:33.842Z,96788.16
2023-06-17T00:40:00.787Z,96783.66
2023-06-17T00:42:27.470Z,96786.25
2023-06-17T00:44:54.001Z,96778.31
2023-06-17T00:47:21.022Z,96779.09
2023-06-17T00:49:48.386Z,96784.09
2023-06-17T00:52:31.642Z,96784.38
2023-06-17T00:55:02.929Z,96779.63
2023-06-17T00:57:30.415Z,96782.53
2023-06-17T00:59:57.328Z,96782.22
2023-06-17T01:02:26.849Z,96778.28
2023-06-17T01:04:55.153Z,96774.25
2023-06-17T01:08:20.662Z,96784.56
2023-06-17T01:11:06.900Z,96772.97
2023-06-17T01:13:35.114Z,96770.25
2023-06-17T01:16:03.820Z,96772.84
2023-06-17T01:18:32.344Z,96768.28
2023-06-17T01:21:00.283Z,96774.28
2023-06-17T01:23:33.465Z,96756.91
2023-06-17T01:26:02.503Z,96767.16
2023-06-17T01:28:30.705Z,96751.28
2023-06-17T01:30:58.141Z,96764.50
2023-06-17T01:33:26.426Z,96763.06
2023-06-17T01:36:06.100Z,96766.41
2023-06-17T01:38:49.669Z,96767.16
2023-06-17T01:41:20.458Z,96765.34
2023-06-17T01:43:49.721Z,96755.81
2023-06-17T01:46:17.353Z,96740.69
2023-06-17T01:48:44.190Z,96739.84
2023-06-17T01:51:11.118Z,96758.72
2023-06-17T01:53:37.877Z,96758.88
2023-06-17T01:56:04.673Z,96760.22
2023-06-17T01:58:31.289Z,96755.16
2023-06-17T02:00:58.428Z,96725.22
2023-06-17T02:03:25.132Z,96738.56
2023-06-17T02:05:51.786Z,96751.25
2023-06-17T02:08:18.328Z,96754.97
2023-06-17T02:10:44.888Z,96750.66
2023-06-17T02:13:11.361Z,96751.13
2023-06-17T02:15:39.740Z,96740.03
2023-06-17T02:18:06.814Z,96730.59
2023-06-17T02:20:33.429Z,96741.41
2023-06-17T02:23:01.997Z,96742.66
2023-06-17T02:25:28.919Z,96760.91
2023-06-17T02:27:55.669Z,96734.66
2023-06-17T02:30:22.835Z,96732.06
2023-06-17T02:32:49.556Z,96719.78
2023-06-17T02:35:16.386Z,96752.88
2023-06-17T02:37:44.463Z,96751.53
2023-06-17T02:40:11.738Z,96727.31
2023-06-17T02:42:39.173Z,96754.66
2023-06-17T02:45:07.951Z,96727.06
2023-06-17T02:47:34.593Z,96751.94
2023-06-17T02:50:02.198Z,96747.03
2023-06-17T02:52:31.904Z,96745.59
2023-06-17T02:54:58.874Z,96724.38
2023-06-17T02:57:25.377Z,96750.47
2023-06-17T02:59:52.131Z,96722.84
2023-06-17T03:02:19.171Z,96754.13
2023-06-17T03:04:46.309Z,96701.94
2023-06-17T03:07:13.430Z,96737.03
2023-06-17T03:09:40.057Z,96752.84
2023-06-17T03:12:07.205Z,96762.63
2023-06-17T03:14:34.661Z,96755.97
2023-06-17T03:17:04.036Z,96737.59
2023-06-17T03:19:30.834Z,96730.38
2023-06-17T03:21:57.383Z,96758.91
2023-06-17T03:24:26.791Z,96737.16
2023-06-17T03:26:54.764Z,96745.44
2023-06-17T03:29:22.068Z,96759.25
2023-06-17T03:31:51.278Z,96745.84
2023-06-17T03:34:17.930Z,96739.91
2023-06-17T03:36:48.610Z,96756.00
2023-06-17T03:39:15.520Z,96728.69
2023-06-17T03:41:42.398Z,96742.78
2023-06-17T03:44:09.493Z,96728.81
2023-06-17T03:46:35.979Z,96765.34
2023-06-17T03:49:03.425Z,96768.81
2023-06-17T03:51:30.109Z,96748.69
2023-06-17T03:53:56.539Z,96757.81
2023-06-17T03:56:23.767Z,96727.88
2023-06-17T03:58:50.305Z,96761.63
2023-06-17T04:01:17.016Z,96760.91
2023-06-17T04:03:45.598Z,96745.81
2023-06-17T04:06:15.726Z,96754.41
2023-06-17T04:08:44.959Z,96738.72
2023-06-17T04:11:14.031Z,96728.44
2023-06-17T04:13:40.554Z,96753.19
2023-06-17T04:16:08.287Z,96761.53
2023-06-17T04:18:34.889Z,96745.59
2023-06-17T04:21:02.852Z,96734.50
2023-06-17T04:23:31.272Z,96760.34
2023-06-17T04:25:57.966Z,96752.88
2023-06-17T04:28:24.823Z,96726.84
2023-06-17T04:30:52.770Z,96721.09
2023-06-17T04:33:19.739Z,96749.59
2023-06-17T04:35:48.390Z,96751.97
2023-06-17T04:38:15.732Z,96743.88
2023-06-17T04:40:43.274Z,96733.06
2023-06-17T04:43:11.125Z,96736.28
2023-06-17T04:45:37.769Z,96749.81
2023-06-17T04:48:06.995Z,96754.06
2023-06-17T04:50:34.598Z,96717.84
2023-06-17T04:53:05.184Z,96747.44
2023-06-17T04:55:37.077Z,96734.28
2023-06-17T04:58:05.691Z,96749.25
2023-06-17T05:00:40.534Z,96722.34
2023-06-17T05:03:08.053Z,96746.41
2023-06-17T05:05:37.087Z,96737.28
2023-06-17T05:08:04.274Z,96739.47
2023-06-17T05:10:31.042Z,96736.41
2023-06-17T05:12:57.590Z,96751.66
2023-06-17T05:15:26.384Z,96741.78
2023-06-17T05:17:53.415Z,96750.50
2023-06-17T05:20:20.533Z,96733.75
2023-06-17T05:22:47.445Z,96726.81
2023-06-17T05:25:13.961Z,96734.59
2023-06-17T05:27:40.626Z,96749.56
2023-06-17T05:30:09.108Z,96732.88
2023-06-17T05:32:36.147Z,96750.66
2023-06-17T05:35:02.775Z,96725.00
2023-06-17T05:37:32.961Z,96751.97
2023-06-17T05:40:00.394Z,96743.34
2023-06-17T05:42:27.841Z,96750.94
2023-06-17T05:44:54.462Z,96727.41
2023-06-17T05:47:23.719Z,96725.72
2023-06-17T05:49:50.187Z,96742.84
2023-06-17T05:52:17.088Z,96754.03
2023-06-17T05:54:43.750Z,96742.41
2023-06-17T05:57:12.208Z,96760.56
2023-06-17T05:59:38.786Z,96750.19
2023-06-17T06:02:06.044Z,96717.81
2023-06-17T06:04:32.593Z,96748.41
2023-06-17T06:06:59.106Z,96757.09
2023-06-17T06:09:25.843Z,96757.63
2023-06-17T06:11:52.633Z,96746.34
2023-06-17T06:14:19.567Z,96751.63
2023-06-17T06:16:47.723Z,96759.56
2023-06-17T06:19:15.660Z,96738.84
2023-06-17T06:21:43.233Z,96766.56
2023-06-17T06:24:09.820Z,96749.31
2023-06-17T06:26:38.222Z,96763.59
2023-06-17T06:29:05.900Z,96748.56
2023-06-17T06:31:33.311Z,96732.13
2023-06-17T06:34:00.700Z,96747.50
2023-06-17T06:36:27.593Z,96763.41
2023-06-17T06:38:54.150Z,96758.13
2023-06-17T06:41:20.973Z,96755.34
2023-06-17T06:43:57.017Z,96755.34
2023-06-17T06:46:24.177Z,96739.44
2023-06-17T06:48:50.931Z,96766.66
2023-06-17T06:51:17.588Z,96757.84
2023-06-17T06:53:44.226Z,96766.25
2023-06-17T06:56:10.881Z,96746.50
2023-06-17T06:58:39.084Z,96756.00
2023-06-17T07:01:05.904Z,96753.09
2023-06-17T07:03:33.469Z,96736.22
2023-06-17T07:06:00.004Z,96747.16
2023-06-17T07:08:27.337Z,96762.91
2023-06-17T07:10:54.079Z,96763.91
2023-06-17T07:13:22.365Z,96765.50
2023-06-17T07:15:51.242Z,96753.38
2023-06-17T07:18:19.412Z,96760.44
2023-06-17T07:20:46.668Z,96762.81
2023-06-17T07:23:13.320Z,96770.16
2023-06-17T07:25:39.982Z,96756.34
2023-06-17T07:28:08.318Z,96762.06
2023-06-17T07:30:35.452Z,96762.63
2023-06-17T07:33:02.116Z,96767.72
2023-06-17T07:35:30.176Z,96742.53
2023-06-17T07:37:57.808Z,96734.84
2023-06-17T07:40:24.437Z,96759.44
2023-06-17T07:42:51.069Z,96770.00
2023-06-17T07:45:17.611Z,96751.53
2023-06-17T07:47:44.281Z,96746.13
2023-06-17T07:50:11.382Z,96741.56
2023-06-17T07:52:38.355Z,96767.22
2023-06-17T07:55:08.231Z,96770.25
2023-06-17T07:57:35.611Z,96756.97
2023-06-17T08:00:02.206Z,96742.66
2023-06-17T08:02:39.002Z,96733.88
2023-06-17T08:05:06.067Z,96769.28
2023-06-17T08:07:32.741Z,96758.50
2023-06-17T08:09:59.364Z,96753.75
2023-06-17T08:12:25.956Z,96750.06
2023-06-17T08:14:53.309Z,96755.38
2023-06-17T08:17:19.840Z,96748.19
2023-06-17T08:19:46.488Z,96723.78
2023-06-17T08:22:13.031Z,96743.31
2023-06-17T08:24:39.696Z,96735.56
2023-06-17T08:27:07.139Z,96739.91
2023-06-17T08:29:33.658Z,96701.91
2023-06-17T08:32:00.466Z,96725.13
2023-06-17T08:34:31.516Z,96737.13
2023-06-17T08:37:04.989Z,96731.38
2023-06-17T08:39:32.896Z,96732.09
2023-06-17T08:42:00.380Z,96716.59
2023-06-17T08:53:08.760Z,96728.22
2023-06-17T08:55:36.162Z,96725.94
2023-06-17T08:58:03.599Z,96734.63
2023-06-17T09:00:30.253Z,96738.16
2023-06-17T09:03:00.094Z,96733.00
2023-06-17T09:05:27.806Z,96730.25
2023-06-17T09:07:54.636Z,96730.59
2023-06-17T09:10:21.366Z,96722.22
2023-06-17T09:12:48.367Z,96717.75
2023-06-17T09:15:17.107Z,96720.50
2023-06-17T09:17:46.164Z,96723.91
2023-06-17T09:20:17.700Z,96725.16
2023-06-17T09:22:46.629Z,96714.59
2023-06-17T09:25:15.594Z,96720.81
2023-06-17T09:30:24.668Z,96709.81
2023-06-17T09:32:53.274Z,96714.16
2023-06-17T09:35:20.415Z,96714.91
2023-06-17T09:38:02.548Z,96713.25
2023-06-17T09:40:34.487Z,96717.06
2023-06-17T09:43:20.837Z,96708.78
2023-06-17T09:45:51.269Z,96712.31
2023-06-17T09:48:18.686Z,96709.66
2023-06-17T09:50:45.608Z,96690.75
2023-06-17T09:53:12.853Z,96695.88
2023-06-17T09:55:40.016Z,96695.31
2023-06-17T09:58:08.045Z,96692.38
2023-06-17T10:00:34.969Z,96687.41
2023-06-17T10:03:04.352Z,96686.31
2023-06-17T10:05:31.211Z,96681.09
2023-06-17T10:07:58.517Z,96684.59
2023-06-17T10:10:25.558Z,96680.59
2023-06-17T10:12:56.022Z,96671.69
2023-06-17T10:15:24.226Z,96677.50
2023-06-17T10:17:52.969Z,96676.06
2023-06-17T10:20:21.836Z,96677.72
2023-06-17T10:22:55.618Z,96680.59
2023-06-17T10:25:25.342Z,96685.03
2023-06-17T10:27:52.648Z,96678.38
2023-06-17T10:30:30.004Z,96684.50
2023-06-17T10:32:59.623Z,96689.97
2023-06-17T10:35:43.854Z,96686.38
2023-06-17T10:38:17.917Z,96688.59
2023-06-17T10:40:51.248Z,96688.81
2023-06-17T10:43:19.662Z,96687.97
2023-06-17T10:45:52.538Z,96683.19
2023-06-17T10:48:28.964Z,96665.56
2023-06-17T10:50:58.092Z,96690.13
2023-06-17T10:53:28.151Z,96688.53
2023-06-17T10:55:55.034Z,96675.94
2023-06-17T10:58:21.606Z,96688.25
2023-06-17T11:00:58.362Z,96689.59
2023-06-17T11:03:25.548Z,96680.63
2023-06-17T11:05:53.356Z,96680.38
2023-06-17T11:08:20.010Z,96657.50
2023-06-17T11:10:46.574Z,96640.28
2023-06-17T11:13:13.898Z,96660.06
2023-06-17T11:15:40.450Z,96662.94
2023-06-17T11:18:09.252Z,96652.41
2023-06-17T11:20:36.355Z,96628.13
2023-06-17T11:23:04.769Z,96648.00
2023-06-17T11:25:40.255Z,96607.94
2023-06-17T11:28:11.668Z,96614.47
2023-06-17T11:30:40.169Z,96606.22
2023-06-17T11:33:07.902Z,96629.72
2023-06-17T11:35:35.806Z,96613.53
2023-06-17T11:38:03.341Z,96623.81
2023-06-17T11:40:29.884Z,96616.19
2023-06-17T11:42:58.605Z,96626.09
2023-06-17T11:45:26.038Z,96624.66
2023-06-17T11:47:52.685Z,96626.13
2023-06-17T11:50:19.951Z,96628.44
2023-06-17T11:52:57.545Z,96621.06
2023-06-17T11:55:35.013Z,96623.66
2023-06-17T11:58:04.410Z,96613.72
2023-06-17T12:00:31.827Z,96616.88
2023-06-17T12:02:58.728Z,96618.56
2023-06-17T12:05:29.592Z,96588.88
2023-06-17T12:08:02.303Z,96615.97
2023-06-17T12:10:29.042Z,96610.84
2023-06-17T12:12:57.444Z,96599.88
2023-06-17T12:18:11.110Z,96590.47
2023-06-17T12:20:38.345Z,96591.97
2023-06-17T12:23:05.334Z,96566.19
2023-06-17T12:25:37.682Z,96583.47
2023-06-17T12:28:04.480Z,96583.59
2023-06-17T12:30:35.454Z,96579.69
2023-06-17T12:33:03.896Z,96583.13
2023-06-17T12:35:31.849Z,96589.94
2023-06-17T12:37:58.918Z,96594.91
2023-06-17T12:40:26.120Z,96592.63
2023-06-17T12:42:52.959Z,96600.13
2023-06-17T12:45:19.817Z,96592.16
2023-06-17T12:47:46.819Z,96593.50
2023-06-17T12:50:13.649Z,96567.41
2023-06-17T12:52:40.634Z,96575.25
2023-06-17T12:55:07.493Z,96570.28
2023-06-17T12:57:34.443Z,96577.81
2023-06-17T13:00:05.051Z,96585.19
2023-06-17T13:02:33.619Z,96585.13
2023-06-17T13:05:00.578Z,96574.56
2023-06-17T13:07:28.145Z,96580.28
2023-06-17T13:09:56.098Z,96583.00
2023-06-17T13:12:23.159Z,96584.09
2023-06-17T13:14:50.503Z,96581.00
2023-06-17T13:17:17.375Z,96571.56
2023-06-17T13:19:43.971Z,96581.56
2023-06-17T13:22:10.516Z,96579.00
2023-06-17T13:24:37.452Z,96555.31
2023-06-17T13:27:04.533Z,96568.28
2023-06-17T13:29:31.187Z,96566.78
2023-06-17T13:31:57.724Z,96570.56
2023-06-17T13:34:24.412Z,96570.22
2023-06-17T13:36:50.945Z,96543.53
2023-06-17T13:39:17.582Z,96551.91
2023-06-17T13:41:44.151Z,96566.22
2023-06-17T13:44:11.047Z,96561.84
2023-06-17T13:46:37.724Z,96562.75
2023-06-17T13:49:04.600Z,96564.59
2023-06-17T13:51:32.430Z,96564.47
2023-06-17T13:54:01.827Z,96532.41
2023-06-17T13:56:29.038Z,96541.47
2023-06-17T13:58:56.661Z,96538.84
2023-06-17T14:01:24.538Z,96535.53
2023-06-17T14:03:51.714Z,96557.97
2023-06-17T14:06:20.871Z,96556.75
2023-06-17T14:08:47.638Z,96541.03
2023-06-17T14:11:14.215Z,96548.25
2023-06-17T14:13:41.804Z,96529.66
2023-06-17T14:16:10.645Z,96546.88
2023-06-17T14:18:37.197Z,96517.56
2023-06-17T14:21:03.914Z,96543.28
2023-06-17T14:23:30.527Z,96534.94
2023-06-17T14:25:57.126Z,96517.72
2023-06-17T14:28:23.656Z,96509.72
2023-06-17T14:30:50.275Z,96524.06
2023-06-17T14:33:16.816Z,96533.22
2023-06-17T14:35:43.602Z,96518.34
2023-06-17T14:38:10.353Z,96530.28
2023-06-17T14:40:37.276Z,96510.53
2023-06-17T14:43:05.236Z,96504.25
2023-06-17T14:45:31.903Z,96513.50
2023-06-17T14:47:58.580Z,96524.09
2023-06-17T14:50:26.269Z,96505.56
2023-06-17T14:52:52.836Z,96496.38
2023-06-17T14:55:19.408Z,96534.84
2023-06-17T14:57:46.127Z,96523.56
2023-06-17T15:00:13.041Z,96525.41
2023-06-17T15:03:02.878Z,96510.84
2023-06-17T15:05:29.681Z,96495.28
2023-06-17T15:07:56.373Z,96503.84
2023-06-17T15:10:23.414Z,96518.25
2023-06-17T15:12:50.279Z,96526.25
2023-06-17T15:15:18.195Z,96507.28
2023-06-17T15:17:45.280Z,96521.09
2023-06-17T15:20:12.387Z,96496.50
2023-06-17T15:22:39.480Z,96518.53
2023-06-17T15:25:06.452Z,96513.41
2023-06-17T15:27:33.018Z,96520.25
2023-06-17T15:29:59.540Z,96499.19
2023-06-17T15:32:26.172Z,96518.44
2023-06-17T15:34:53.164Z,96500.53
2023-06-17T15:37:19.836Z,96497.47
2023-06-17T15:39:46.335Z,96494.06
2023-06-17T15:42:13.040Z,96507.09
2023-06-17T15:44:39.593Z,96505.31
2023-06-17T15:47:06.338Z,96517.09
2023-06-17T15:49:33.161Z,96519.34
2023-06-17T15:51:59.696Z,96491.97
2023-06-17T15:54:26.676Z,96522.25
2023-06-17T15:56:53.360Z,96522.84
2023-06-17T15:59:20.317Z,96491.75
2023-06-17T16:01:47.291Z,96513.44
2023-06-17T16:04:36.245Z,96522.78
2023-06-17T16:07:13.849Z,96490.75
2023-06-17T16:09:43.760Z,96509.03
2023-06-17T16:12:12.785Z,96513.03
2023-06-17T16:14:39.303Z,96496.59
2023-06-17T16:17:07.337Z,96519.03
2023-06-17T16:19:36.511Z,96523.31
2023-06-17T16:22:07.343Z,96519.66
2023-06-17T16:24:34.171Z,96501.91
2023-06-17T16:27:01.046Z,96495.91
2023-06-17T16:29:28.017Z,96517.28
2023-06-17T16:31:55.107Z,96506.78
2023-06-17T16:34:22.432Z,96492.69
2023-06-17T16:36:49.285Z,96491.75
2023-06-17T16:39:16.197Z,96478.31
2023-06-17T16:41:42.805Z,96502.63
2023-06-17T16:44:09.563Z,96481.50
2023-06-17T16:46:36.529Z,96512.94
2023-06-17T16:49:03.992Z,96527.28
2023-06-17T16:51:33.104Z,96534.44
2023-06-17T16:54:03.057Z,96526.44
2023-06-17T16:56:31.789Z,96507.03
2023-06-17T16:58:58.374Z,96523.13
2023-06-17T17:01:25.024Z,96505.88
2023-06-17T17:03:51.890Z,96503.69
2023-06-17T17:06:18.456Z,96527.22
2023-06-17T17:08:48.765Z,96526.56
2023-06-17T17:11:15.547Z,96518.13
2023-06-17T17:13:48.634Z,96514.72
2023-06-17T17:16:16.673Z,96529.72
2023-06-17T17:18:43.329Z,96534.16
2023-06-17T17:21:09.999Z,96525.53
2023-06-17T17:23:36.608Z,96510.00
2023-06-17T17:26:03.273Z,96540.03
2023-06-17T17:28:29.864Z,96537.41
2023-06-17T17:30:56.826Z,96539.09
2023-06-17T17:33:24.484Z,96542.66
2023-06-17T17:35:51.517Z,96535.63
2023-06-17T17:38:18.037Z,96546.66
2023-06-17T17:40:44.550Z,96543.81
2023-06-17T17:43:11.058Z,96537.09
2023-06-17T17:45:37.596Z,96531.81
2023-06-17T17:48:04.402Z,96518.34
2023-06-17T17:50:31.164Z,96535.75
2023-06-17T17:52:59.142Z,96533.88
2023-06-17T17:55:25.669Z,96543.97
2023-06-17T17:57:52.208Z,96530.22
2023-06-17T18:00:19.340Z,96562.59
2023-06-17T18:02:46.849Z,96565.59
2023-06-17T18:05:13.742Z,96528.75
2023-06-17T18:07:40.272Z,96555.00
2023-06-17T18:10:07.341Z,96562.06
2023-06-17T18:12:33.909Z,96575.69
2023-06-17T18:15:00.606Z,96560.16
2023-06-17T18:17:27.749Z,96548.94
2023-06-17T18:19:54.472Z,96544.97
2023-06-17T18:22:21.397Z,96562.97
2023-06-17T18:24:47.948Z,96589.53
2023-06-17T18:27:31.113Z,96581.94
2023-06-17T18:30:02.801Z,96582.25
2023-06-17T18:32:29.545Z,96589.09
2023-06-17T18:34:56.259Z,96589.75
2023-06-17T18:37:22.959Z,96566.09
2023-06-17T18:39:49.504Z,96566.72
2023-06-17T18:42:15.927Z,96584.34
2023-06-17T18:44:44.365Z,96555.94
2023-06-17T18:47:10.971Z,96572.13
2023-06-17T18:49:37.670Z,96586.97
2023-06-17T18:52:04.601Z,96590.00
2023-06-17T18:54:31.100Z,96549.47
2023-06-17T18:56:57.562Z,96593.25
2023-06-17T18:59:24.102Z,96567.41
2023-06-17T19:01:50.747Z,96588.97
2023-06-17T19:04:17.372Z,96586.47
2023-06-17T19:06:43.875Z,96597.97
2023-06-17T19:09:10.810Z,96581.28
2023-06-17T19:11:37.324Z,96600.16
2023-06-17T19:14:03.834Z,96606.72
2023-06-17T19:16:31.131Z,96605.31
2023-06-17T19:18:57.733Z,96595.34
2023-06-17T19:21:24.547Z,96600.97
2023-06-17T19:23:51.296Z,96616.22
2023-06-17T19:26:18.021Z,96604.25
2023-06-17T19:28:44.540Z,96593.63
2023-06-17T19:31:10.942Z,96615.44
2023-06-17T19:33:37.486Z,96611.59
2023-06-17T19:36:04.057Z,96624.28
2023-06-17T19:38:30.583Z,96626.47
2023-06-17T19:40:57.002Z,96633.22
2023-06-17T19:43:24.135Z,96612.56
2023-06-17T19:45:53.132Z,96629.00
2023-06-17T19:48:19.761Z,96629.88
2023-06-17T19:50:46.189Z,96642.06
2023-06-17T19:53:12.857Z,96645.03
2023-06-17T19:55:40.948Z,96638.22
2023-06-17T19:58:07.556Z,96635.75
2023-06-17T20:00:34.003Z,96649.69
2023-06-17T20:03:01.050Z,96638.91
2023-06-17T20:05:27.867Z,96642.69
2023-06-17T20:07:54.411Z,96645.94
2023-06-17T20:10:21.194Z,96660.03
2023-06-17T20:12:47.971Z,96631.53
2023-06-17T20:15:14.591Z,96648.31
2023-06-17T20:17:41.682Z,96647.72
2023-06-17T20:20:08.623Z,96631.31
2023-06-17T20:22:35.234Z,96649.00
2023-06-17T20:25:01.816Z,96648.97
2023-06-17T20:27:28.237Z,96643.09
2023-06-17T20:29:54.816Z,96651.06
2023-06-17T20:32:21.414Z,96646.25
2023-06-17T20:34:48.032Z,96630.13
2023-06-17T20:37:15.080Z,96646.84
2023-06-17T20:39:41.966Z,96645.53
2023-06-17T20:42:08.977Z,96633.06
2023-06-17T20:44:36.178Z,96642.34
2023-06-17T20:47:03.227Z,96627.19
2023-06-17T20:49:29.919Z,96624.28
2023-06-17T20:51:56.650Z,96646.94
2023-06-17T20:54:23.275Z,96639.66
2023-06-17T20:56:49.788Z,96647.63
2023-06-17T20:59:16.932Z,96638.69
2023-06-17T21:01:43.451Z,96645.75
2023-06-17T21:04:10.011Z,96623.63
2023-06-17T21:06:37.504Z,96643.13
2023-06-17T21:09:04.180Z,96622.09
2023-06-17T21:11:30.741Z,96632.25
2023-06-17T21:14:00.097Z,96625.00
2023-06-17T21:16:27.670Z,96636.75
2023-06-17T21:18:54.304Z,96611.75
2023-06-17T21:21:26.854Z,96642.56
2023-06-17T21:23:53.563Z,96641.00
2023-06-17T21:26:20.194Z,96640.22
2023-06-17T21:28:47.477Z,96645.25
2023-06-17T21:31:14.019Z,96632.72
2023-06-17T21:33:40.739Z,96654.47
2023-06-17T21:36:07.723Z,96633.56
2023-06-17T21:38:34.335Z,96664.06
2023-06-17T21:41:01.645Z,96661.25
2023-06-17T21:43:33.189Z,96665.31
2023-06-17T21:46:01.052Z,96664.28
2023-06-17T21:48:28.204Z,96642.66
2023-06-17T21:50:54.741Z,96636.09
2023-06-17T21:53:21.301Z,96651.13
2023-06-17T21:55:48.042Z,96665.03
2023-06-17T21:58:14.679Z,96645.09
2023-06-17T22:17:21.066Z,96641.28
2023-06-17T22:19:47.938Z,96663.97
2023-06-17T22:22:14.473Z,96654.44
2023-06-17T22:24:42.368Z,96658.94
2023-06-17T22:27:12.805Z,96668.19
2023-06-17T22:29:39.319Z,96657.09
2023-06-17T22:32:06.192Z,96675.31
2023-06-17T22:34:32.749Z,96664.72
2023-06-17T22:36:59.698Z,96662.38
2023-06-17T22:39:26.275Z,96666.06
2023-06-17T22:41:53.834Z,96652.88
2023-06-17T22:44:20.750Z,96653.16
2023-06-17T22:46:47.378Z,96668.25
2023-06-17T22:49:13.859Z,96669.81
2023-06-17T22:51:40.415Z,96659.78
2023-06-17T22:54:06.917Z,96667.47
2023-06-17T22:56:33.378Z,96670.44
2023-06-17T22:58:59.868Z,96646.94
2023-06-17T23:01:26.344Z,96668.06
2023-06-17T23:03:52.845Z,96649.03
2023-06-17T23:06:19.333Z,96661.19
2023-06-17T23:08:45.868Z,96621.59
2023-06-17T23:11:12.330Z,96660.41
2023-06-17T23:13:38.842Z,96651.72
2023-06-17T23:16:05.555Z,96649.88
2023-06-17T23:18:32.232Z,96650.13
2023-06-17T23:20:59.079Z,96659.38
2023-06-17T23:23:25.574Z,96661.22
2023-06-17T23:25:52.090Z,96657.81
2023-06-17T23:28:19.034Z,96658.88
2023-06-17T23:30:45.695Z,96652.75
2023-06-17T23:33:14.846Z,96653.06
2023-06-17T23:35:42.329Z,96654.09
2023-06-17T23:38:08.888Z,96639.03
2023-06-17T23:40:35.346Z,96652.75
2023-06-17T23:43:02.184Z,96628.75
2023-06-17T23:45:28.981Z,96656.22
2023-06-17T23:47:55.604Z,96648.81
2023-06-17T23:50:22.907Z,96650.16
2023-06-17T23:52:49.746Z,96620.28
2023-06-17T23:55:16.237Z,96659.91
2023-06-17T23:57:43.076Z,96660.97
